Time;durP1;ratioP1;P1;durP2;ratioP2;P2;SDS_P1;SDS_P2;PMS_P1;PMS_P2;Temp;Humidity;BMP_temperature;BMP_pressure;BME280_temperature;BME280_humidity;BME280_pressure;Samples;Min_cycle;Max_cycle;Signal;HPM_P1;HPM_P2
2022/01/06 00:00:08;;;;;;;17.87;4.70;;;3.80;99.90;;;;;;7272684;32;20101;-82
2022/01/06 00:04:09;;;;;;;10.38;3.60;;;3.70;99.90;;;;;;7258936;32;20211;-82
2022/01/06 00:08:11;;;;;;;14.63;3.72;;;3.80;99.90;;;;;;7258209;32;20127;-82
2022/01/06 00:12:15;;;;;;;13.48;3.65;;;3.70;99.90;;;;;;7268427;32;20494;-81
2022/01/06 00:24:59;;;;;;;15.13;3.12;;;3.80;99.90;;;;;;7250838;32;20187;-79
2022/01/06 00:29:01;;;;;;;15.23;3.80;;;3.80;99.90;;;;;;7274963;32;20619;-80
2022/01/06 00:33:03;;;;;;;17.25;3.75;;;3.80;99.90;;;;;;7259841;32;20124;-81
2022/01/06 00:37:05;;;;;;;12.05;3.53;;;3.80;99.90;;;;;;7261515;32;20172;-81
2022/01/06 00:41:06;;;;;;;12.45;3.60;;;3.70;99.90;;;;;;7260575;32;20131;-81
2022/01/06 00:45:09;;;;;;;19.77;4.43;;;3.70;99.90;;;;;;7253787;32;20097;-81
2022/01/06 00:49:10;;;;;;;15.25;3.65;;;3.60;99.90;;;;;;7244494;32;20109;-81
2022/01/06 00:53:12;;;;;;;15.57;4.00;;;3.60;99.90;;;;;;7255863;32;20215;-81
2022/01/06 00:57:14;;;;;;;16.05;3.28;;;3.50;99.90;;;;;;7245736;32;20112;-81
2022/01/06 01:01:16;;;;;;;16.33;3.47;;;3.40;99.90;;;;;;7251115;32;20105;-80
2022/01/06 01:05:18;;;;;;;16.90;3.83;;;3.40;99.90;;;;;;7241452;32;20108;-82
2022/01/06 01:09:19;;;;;;;15.50;3.12;;;3.30;99.90;;;;;;7245625;32;20315;-80
2022/01/06 01:13:29;;;;;;;12.13;2.87;;;3.20;99.90;;;;;;7240794;32;20572;-81
2022/01/06 01:17:32;;;;;;;17.30;3.08;;;3.10;99.90;;;;;;7243037;32;20524;-81
2022/01/06 01:21:34;;;;;;;17.58;3.35;;;3.00;99.90;;;;;;7257152;32;20117;-82
2022/01/06 01:25:35;;;;;;;15.60;3.78;;;3.00;99.90;;;;;;7248654;32;20130;-81
2022/01/06 01:29:45;;;;;;;12.73;3.00;;;3.00;99.90;;;;;;7273995;32;20138;-82
2022/01/06 01:33:47;;;;;;;15.68;2.70;;;2.90;99.90;;;;;;7268238;32;20196;-81
2022/01/06 01:37:49;;;;;;;18.20;3.33;;;2.70;99.90;;;;;;7239875;32;20979;-80
2022/01/06 01:41:51;;;;;;;18.10;3.03;;;2.70;99.90;;;;;;7252735;32;20117;-79
2022/01/06 01:45:57;;;;;;;13.10;2.78;;;2.70;99.90;;;;;;7251686;32;20171;-80
2022/01/06 01:50:13;;;;;;;15.77;4.03;;;2.70;99.90;;;;;;7232411;32;20583;-80
2022/01/06 01:54:15;;;;;;;15.93;3.08;;;2.60;99.90;;;;;;7262991;32;20769;-80
2022/01/06 01:58:18;;;;;;;9.52;2.53;;;2.70;99.90;;;;;;7262564;32;20116;-80
2022/01/06 02:02:19;;;;;;;17.23;2.97;;;2.60;99.90;;;;;;7272673;32;20232;-80
2022/01/06 02:06:22;;;;;;;17.12;3.00;;;2.60;99.90;;;;;;7273783;32;20104;-80
2022/01/06 02:10:24;;;;;;;21.00;3.10;;;2.80;99.90;;;;;;7252995;32;20104;-80
2022/01/06 02:14:26;;;;;;;14.00;2.60;;;2.70;99.90;;;;;;7253679;32;20108;-80
2022/01/06 02:18:28;;;;;;;17.52;2.67;;;2.60;99.90;;;;;;7262942;32;20179;-80
2022/01/06 02:22:30;;;;;;;16.58;2.35;;;2.60;99.90;;;;;;7262449;32;20188;-80
2022/01/06 02:26:32;;;;;;;14.15;2.75;;;2.60;99.90;;;;;;7261693;32;20089;-80
2022/01/06 02:30:35;;;;;;;21.98;2.90;;;2.50;99.90;;;;;;7262998;32;20172;-79
2022/01/06 02:34:37;;;;;;;14.25;2.92;;;2.50;99.90;;;;;;7269867;32;20116;-81
2022/01/06 02:38:39;;;;;;;17.62;2.87;;;2.40;99.90;;;;;;7258955;32;20392;-80
2022/01/06 02:42:43;;;;;;;15.55;2.60;;;2.30;99.90;;;;;;7254528;32;20117;-80
2022/01/06 02:46:45;;;;;;;18.23;2.42;;;2.30;99.90;;;;;;7256506;32;20207;-80
2022/01/06 02:50:49;;;;;;;15.75;2.17;;;2.30;99.90;;;;;;7262556;32;20096;-80
2022/01/06 02:54:50;;;;;;;18.05;3.15;;;2.20;99.90;;;;;;7257650;32;20158;-81
2022/01/06 02:58:52;;;;;;;19.50;2.65;;;2.30;99.90;;;;;;7251774;32;20116;-81
2022/01/06 03:02:54;;;;;;;14.82;2.50;;;2.20;99.90;;;;;;7250606;32;20327;-81
2022/01/06 03:06:56;;;;;;;18.95;2.78;;;2.20;99.90;;;;;;7243479;32;20108;-80
2022/01/06 03:10:58;;;;;;;13.95;2.80;;;2.30;99.90;;;;;;7253426;32;20126;-80
2022/01/06 03:15:00;;;;;;;17.10;2.72;;;2.40;99.90;;;;;;7256814;32;20117;-80
2022/01/06 03:19:02;;;;;;;18.05;2.60;;;2.50;99.90;;;;;;7246039;32;20209;-81
2022/01/06 03:23:04;;;;;;;18.92;2.83;;;2.60;99.90;;;;;;7233902;32;20185;-80
2022/01/06 03:27:06;;;;;;;13.40;2.42;;;2.70;99.90;;;;;;7241473;32;20093;-80
2022/01/06 03:31:08;;;;;;;13.57;2.78;;;2.70;99.90;;;;;;7242536;32;20195;-80
2022/01/06 03:35:12;;;;;;;10.30;2.33;;;2.70;99.90;;;;;;7238241;32;20255;-80
2022/01/06 03:39:14;;;;;;;14.38;2.80;;;2.70;99.90;;;;;;7232795;32;20101;-81
2022/01/06 03:43:16;;;;;;;20.50;2.75;;;2.60;99.90;;;;;;7252012;32;20618;-80
2022/01/06 03:47:18;;;;;;;13.43;2.85;;;2.60;99.90;;;;;;7242847;32;20679;-81
2022/01/06 03:51:23;;;;;;;16.12;2.28;;;2.60;99.90;;;;;;7238281;32;20279;-81
2022/01/06 03:55:24;;;;;;;16.52;2.35;;;2.60;99.90;;;;;;7244117;32;20116;-81
2022/01/06 03:59:26;;;;;;;15.82;2.10;;;2.60;99.90;;;;;;7247406;32;20128;-80
2022/01/06 04:03:28;;;;;;;13.15;2.05;;;2.50;99.90;;;;;;7242156;32;20138;-81
2022/01/06 04:07:30;;;;;;;19.75;2.37;;;2.30;99.90;;;;;;7238050;32;20217;-81
2022/01/06 04:11:32;;;;;;;18.33;3.10;;;2.20;99.90;;;;;;7249830;32;20108;-81
2022/01/06 04:15:34;;;;;;;17.10;1.85;;;2.10;99.90;;;;;;7236354;32;20120;-81
2022/01/06 04:19:36;;;;;;;10.75;2.12;;;2.00;99.90;;;;;;7247012;32;20593;-81
2022/01/06 04:23:38;;;;;;;10.27;2.10;;;1.90;99.90;;;;;;7251176;32;20110;-80
2022/01/06 04:27:40;;;;;;;8.80;1.90;;;1.80;99.90;;;;;;7287787;32;20214;-80
2022/01/06 04:31:42;;;;;;;12.82;2.28;;;1.80;99.90;;;;;;7291507;32;20077;-79
2022/01/06 04:35:53;;;;;;;10.95;1.80;;;1.80;99.90;;;;;;7289836;32;20073;-80
2022/01/06 04:40:13;;;;;;;9.18;2.15;;;1.70;99.90;;;;;;7276067;32;20123;-80
2022/01/06 04:44:15;;;;;;;10.45;2.15;;;1.60;99.90;;;;;;7270510;32;20069;-81
2022/01/06 04:48:17;;;;;;;10.27;1.92;;;1.50;99.90;;;;;;7280498;32;20099;-81
2022/01/06 04:52:19;;;;;;;9.77;2.33;;;1.60;99.90;;;;;;7278433;32;20104;-80
2022/01/06 04:56:20;;;;;;;7.97;2.33;;;1.50;99.90;;;;;;7256899;32;20187;-80
2022/01/06 05:00:22;;;;;;;12.95;2.05;;;1.40;99.90;;;;;;7257544;32;20214;-82
2022/01/06 05:04:24;;;;;;;9.45;1.83;;;1.30;99.90;;;;;;7250101;32;20742;-83
2022/01/06 05:08:26;;;;;;;10.07;2.20;;;1.20;99.90;;;;;;7257699;32;20109;-81
2022/01/06 05:12:30;;;;;;;8.23;1.52;;;1.10;99.90;;;;;;7233270;32;20175;-82
2022/01/06 05:16:32;;;;;;;9.93;1.77;;;1.00;99.90;;;;;;7249918;32;20113;-80
2022/01/06 05:20:37;;;;;;;11.30;2.20;;;0.90;99.90;;;;;;7264720;32;20186;-82
2022/01/06 05:24:39;;;;;;;9.60;1.98;;;0.90;99.90;;;;;;7261446;32;20117;-81
2022/01/06 05:28:42;;;;;;;5.57;2.17;;;0.80;99.90;;;;;;7254008;32;20120;-83
2022/01/06 05:32:43;;;;;;;8.30;1.98;;;0.80;99.90;;;;;;7253311;32;20149;-81
2022/01/06 05:36:45;;;;;;;11.73;1.92;;;0.70;99.90;;;;;;7261233;32;20242;-83
2022/01/06 05:40:47;;;;;;;4.55;1.85;;;0.70;99.90;;;;;;7252651;32;20231;-78
2022/01/06 05:44:49;;;;;;;14.38;2.08;;;0.60;99.90;;;;;;7255915;32;20582;-80
2022/01/06 05:48:51;;;;;;;14.02;2.17;;;0.60;99.90;;;;;;7240781;32;20158;-76
2022/01/06 05:52:54;;;;;;;6.22;1.80;;;0.50;99.90;;;;;;7254279;32;20144;-77
2022/01/06 05:56:56;;;;;;;9.48;3.10;;;0.50;99.90;;;;;;7240175;32;20113;-79
2022/01/06 06:00:58;;;;;;;9.25;1.87;;;0.40;99.90;;;;;;7249553;32;20474;-80
2022/01/06 06:05:00;;;;;;;8.70;2.17;;;0.40;99.90;;;;;;7256983;32;20399;-80
2022/01/06 06:09:02;;;;;;;14.38;3.12;;;0.30;99.90;;;;;;7260323;32;20845;-82
2022/01/06 06:13:04;;;;;;;10.27;3.50;;;0.30;99.90;;;;;;7253312;32;20132;-81
2022/01/06 06:17:06;;;;;;;11.12;4.60;;;0.30;99.90;;;;;;7254389;32;20148;-80
2022/01/06 06:21:08;;;;;;;9.50;4.00;;;0.40;99.90;;;;;;7273996;32;20534;-80
2022/01/06 06:25:10;;;;;;;10.93;4.57;;;0.40;99.90;;;;;;7254455;32;20246;-80
2022/01/06 06:29:12;;;;;;;15.40;5.43;;;0.40;99.90;;;;;;7264727;32;20125;-80
2022/01/06 06:33:14;;;;;;;15.18;5.20;;;0.50;99.90;;;;;;7273010;32;20595;-80
2022/01/06 06:37:15;;;;;;;6.75;3.80;;;0.50;99.90;;;;;;7256739;32;20155;-81
2022/01/06 06:41:17;;;;;;;13.52;4.57;;;0.60;99.90;;;;;;7256878;32;20145;-80
2022/01/06 06:45:21;;;;;;;14.05;4.57;;;0.70;99.90;;;;;;7261977;32;20120;-80
2022/01/06 06:49:23;;;;;;;9.75;3.67;;;0.80;99.90;;;;;;7246133;32;20192;-80
2022/01/06 06:53:25;;;;;;;10.85;3.62;;;0.80;99.90;;;;;;7259055;32;20302;-80
2022/01/06 06:57:27;;;;;;;11.40;3.92;;;0.80;99.90;;;;;;7257880;32;20166;-80
2022/01/06 07:01:29;;;;;;;9.75;3.78;;;0.90;99.90;;;;;;7244384;32;20148;-81
2022/01/06 07:05:31;;;;;;;13.13;3.33;;;0.90;99.90;;;;;;7252178;32;20211;-80
2022/01/06 07:09:32;;;;;;;12.98;3.33;;;0.90;99.90;;;;;;7244361;32;20270;-80
2022/01/06 07:13:34;;;;;;;18.98;3.40;;;1.00;99.90;;;;;;7257694;32;20157;-80
2022/01/06 07:17:36;;;;;;;11.15;2.72;;;0.90;99.90;;;;;;7230362;32;20113;-80
2022/01/06 07:21:38;;;;;;;15.23;3.58;;;0.90;99.90;;;;;;7250913;32;20155;-80
2022/01/06 07:25:40;;;;;;;11.43;3.22;;;0.90;99.90;;;;;;7252801;32;20145;-80
2022/01/06 07:29:41;;;;;;;10.55;2.80;;;0.80;99.90;;;;;;7259199;32;20170;-80
2022/01/06 07:33:43;;;;;;;8.43;2.33;;;0.80;99.90;;;;;;7249941;32;20125;-81
2022/01/06 07:37:59;;;;;;;6.40;2.87;;;0.70;99.90;;;;;;7262956;32;20125;-80
2022/01/06 07:42:01;;;;;;;8.70;2.47;;;0.70;99.90;;;;;;7262568;32;20194;-78
2022/01/06 07:46:04;;;;;;;9.60;3.85;;;0.70;99.90;;;;;;7254586;32;20137;-81
2022/01/06 07:50:06;;;;;;;8.30;3.45;;;0.70;99.90;;;;;;7254406;32;20482;-80
2022/01/06 07:54:08;;;;;;;12.13;2.67;;;0.80;99.90;;;;;;7259783;32;20129;-80
2022/01/06 07:58:10;;;;;;;14.35;3.70;;;0.80;99.90;;;;;;7250716;32;20137;-80
2022/01/06 08:02:11;;;;;;;9.48;3.20;;;0.70;99.90;;;;;;7248319;32;20176;-81
2022/01/06 08:06:15;;;;;;;7.05;2.95;;;0.70;99.90;;;;;;7261324;32;20109;-81
2022/01/06 08:10:17;;;;;;;9.27;3.40;;;0.70;99.90;;;;;;7261763;32;20613;-80
2022/01/06 08:14:19;;;;;;;9.75;2.67;;;0.70;99.90;;;;;;7250924;32;20138;-80
2022/01/06 08:18:21;;;;;;;11.05;3.05;;;0.80;99.90;;;;;;7238225;32;20267;-80
2022/01/06 08:22:23;;;;;;;17.45;6.87;;;0.80;99.90;;;;;;7244692;32;20176;-78
2022/01/06 08:26:25;;;;;;;15.20;3.50;;;0.70;99.90;;;;;;7242153;32;20171;-80
2022/01/06 08:30:27;;;;;;;14.82;3.42;;;0.70;99.90;;;;;;7255532;32;20151;-77
2022/01/06 08:34:29;;;;;;;11.80;2.80;;;0.70;99.90;;;;;;7237796;32;20154;-78
2022/01/06 08:38:31;;;;;;;10.85;3.00;;;0.80;99.90;;;;;;7235070;32;20226;-78
2022/01/06 08:42:33;;;;;;;12.13;2.92;;;0.80;99.90;;;;;;7258660;32;20330;-81
2022/01/06 08:46:34;;;;;;;15.43;3.53;;;0.80;99.90;;;;;;7237614;32;20841;-76
2022/01/06 08:50:36;;;;;;;15.50;4.25;;;0.90;99.90;;;;;;7249509;32;20196;-83
2022/01/06 08:54:38;;;;;;;10.70;3.28;;;0.90;99.90;;;;;;7242225;32;20394;-79
2022/01/06 08:58:40;;;;;;;13.18;3.28;;;1.00;99.90;;;;;;7229692;32;20134;-76
2022/01/06 09:02:42;;;;;;;13.70;4.20;;;1.00;99.90;;;;;;7229961;32;20113;-77
2022/01/06 09:06:43;;;;;;;14.40;3.67;;;1.10;99.90;;;;;;7244067;32;20133;-78
2022/01/06 09:10:45;;;;;;;11.27;3.60;;;1.20;99.90;;;;;;7246560;32;20168;-77
2022/01/06 09:15:01;;;;;;;17.23;4.12;;;1.30;99.90;;;;;;7235514;32;20662;-77
2022/01/06 09:19:03;;;;;;;13.75;3.55;;;1.40;99.90;;;;;;7247832;32;20197;-77
2022/01/06 09:23:05;;;;;;;10.25;3.92;;;1.50;99.90;;;;;;7230039;32;20124;-77
2022/01/06 09:27:07;;;;;;;13.52;3.65;;;1.60;99.90;;;;;;7235908;32;20182;-81
2022/01/06 09:31:08;;;;;;;19.92;3.87;;;1.90;99.90;;;;;;7241858;32;20271;-82
2022/01/06 09:35:10;;;;;;;13.18;4.10;;;2.10;99.90;;;;;;7219735;32;20732;-84
2022/01/06 09:39:12;;;;;;;11.35;4.40;;;2.10;99.90;;;;;;7236910;32;20172;-83
2022/01/06 09:43:15;;;;;;;18.62;5.05;;;2.20;99.90;;;;;;7251613;32;20143;-83
2022/01/06 09:47:18;;;;;;;18.80;4.40;;;2.20;99.90;;;;;;7250081;32;20148;-83
2022/01/06 09:51:40;;;;;;;15.40;3.87;;;2.30;99.90;;;;;;7256109;32;20093;-83
2022/01/06 09:55:42;;;;;;;18.52;3.83;;;2.50;99.90;;;;;;7245220;32;20239;-83
2022/01/06 09:59:44;;;;;;;19.52;4.28;;;2.60;99.90;;;;;;7233158;32;20262;-82
2022/01/06 10:03:48;;;;;;;13.80;4.30;;;2.70;99.90;;;;;;7236201;32;20167;-82
2022/01/06 10:07:53;;;;;;;14.45;4.05;;;2.70;99.90;;;;;;7250616;32;20112;-82
2022/01/06 10:11:57;;;;;;;13.73;4.28;;;2.80;99.90;;;;;;7246316;32;20750;-82
2022/01/06 10:15:59;;;;;;;14.70;4.10;;;2.90;99.90;;;;;;7255570;32;20231;-82
2022/01/06 10:20:13;;;;;;;12.43;3.67;;;3.00;99.90;;;;;;7235165;32;20187;-82
2022/01/06 10:24:17;;;;;;;14.90;4.40;;;3.10;99.90;;;;;;7234929;32;20600;-81
2022/01/06 10:28:21;;;;;;;16.10;4.10;;;3.20;99.90;;;;;;7247504;32;20188;-82
2022/01/06 10:32:25;;;;;;;20.52;4.57;;;3.40;99.90;;;;;;7241732;32;20508;-81
2022/01/06 10:36:31;;;;;;;14.87;4.93;;;3.50;99.90;;;;;;7250952;32;20168;-80
2022/01/06 10:40:33;;;;;;;15.23;4.13;;;3.50;99.90;;;;;;7264911;32;20084;-80
2022/01/06 10:44:55;;;;;;;14.85;3.95;;;3.40;99.90;;;;;;7268863;32;20120;-81
2022/01/06 10:48:59;;;;;;;16.20;4.22;;;3.50;99.90;;;;;;7269722;32;20056;-81
2022/01/06 10:53:10;;;;;;;15.93;4.70;;;3.60;99.90;;;;;;7261875;32;20632;-81
2022/01/06 10:57:26;;;;;;;16.25;4.07;;;3.80;99.90;;;;;;7256946;32;20159;-81
2022/01/06 11:01:32;;;;;;;16.17;5.03;;;4.00;99.90;;;;;;7260657;32;20109;-80
2022/01/06 11:05:36;;;;;;;16.17;4.23;;;4.00;99.90;;;;;;7264695;32;20135;-79
2022/01/06 11:09:39;;;;;;;21.95;4.45;;;4.20;99.90;;;;;;7283551;32;20268;-78
2022/01/06 11:13:47;;;;;;;13.95;4.35;;;4.40;99.90;;;;;;7263227;32;20174;-78
2022/01/06 11:17:50;;;;;;;16.08;5.32;;;4.50;99.90;;;;;;7274266;32;20180;-79
2022/01/06 11:21:59;;;;;;;15.60;5.22;;;4.80;99.90;;;;;;7268226;32;20379;-79
2022/01/06 11:26:21;;;;;;;14.05;4.93;;;4.90;99.90;;;;;;7267267;32;20069;-80
2022/01/06 11:30:23;;;;;;;13.27;5.47;;;5.10;99.90;;;;;;7263464;32;20192;-81
2022/01/06 11:34:27;;;;;;;16.62;4.72;;;5.30;99.90;;;;;;7259298;32;20166;-81
2022/01/06 11:38:29;;;;;;;16.15;5.82;;;5.50;99.90;;;;;;7246445;32;20459;-81
2022/01/06 11:42:30;;;;;;;17.50;5.35;;;5.60;99.90;;;;;;7238667;32;20589;-81
2022/01/06 11:46:43;;;;;;;15.90;4.70;;;5.60;99.90;;;;;;7238259;32;20243;-81
2022/01/06 11:50:51;;;;;;;21.00;6.28;;;5.60;99.90;;;;;;7258924;32;20192;-79
2022/01/06 11:54:55;;;;;;;21.87;6.95;;;5.40;99.90;;;;;;7253935;32;20227;-82
2022/01/06 11:59:03;;;;;;;17.95;6.32;;;5.50;99.90;;;;;;7243823;32;20117;-81
2022/01/06 12:03:10;;;;;;;17.30;5.72;;;5.50;99.90;;;;;;7242163;32;20136;-80
2022/01/06 12:07:12;;;;;;;18.62;6.30;;;5.30;99.90;;;;;;7255272;32;20465;-82
2022/01/06 12:11:21;;;;;;;17.75;7.15;;;5.20;99.90;;;;;;7250360;32;20164;-81
2022/01/06 12:15:23;;;;;;;26.25;8.88;;;5.20;99.90;;;;;;7240836;32;20324;-84
2022/01/06 12:19:25;;;;;;;31.48;9.85;;;5.30;99.90;;;;;;7243107;32;20128;-82
2022/01/06 12:23:27;;;;;;;20.58;9.23;;;5.10;99.90;;;;;;7238611;32;20170;-81
2022/01/06 12:27:30;;;;;;;15.73;8.88;;;5.00;99.90;;;;;;7241441;32;20200;-81
2022/01/06 12:31:33;;;;;;;23.50;10.07;;;4.80;99.90;;;;;;7247724;32;20139;-78
2022/01/06 12:35:45;;;;;;;22.65;9.23;;;4.80;99.90;;;;;;7242570;32;20121;-82
2022/01/06 12:39:47;;;;;;;30.58;11.25;;;4.80;99.90;;;;;;7238495;32;20121;-81
2022/01/06 12:43:48;;;;;;;22.75;9.20;;;4.80;99.90;;;;;;7227364;32;20156;-81
2022/01/06 12:47:50;;;;;;;22.48;9.40;;;4.80;99.90;;;;;;7225514;32;20623;-82
2022/01/06 12:51:54;;;;;;;27.23;8.88;;;5.00;99.90;;;;;;7239562;32;20211;-83
2022/01/06 12:55:57;;;;;;;20.95;8.68;;;5.00;99.90;;;;;;7237436;32;20211;-82
2022/01/06 12:59:59;;;;;;;18.67;9.45;;;5.10;99.90;;;;;;7242333;32;20170;-83
2022/01/06 13:04:01;;;;;;;25.30;8.55;;;5.30;99.90;;;;;;7233912;32;20120;-82
2022/01/06 13:08:06;;;;;;;22.52;7.32;;;5.40;99.90;;;;;;7237106;32;20262;-82
2022/01/06 13:12:23;;;;;;;16.33;7.05;;;5.40;99.90;;;;;;7234774;32;20120;-81
2022/01/06 13:16:28;;;;;;;21.58;7.50;;;5.40;99.90;;;;;;7232254;32;20122;-79
2022/01/06 13:20:37;;;;;;;20.35;9.25;;;5.50;99.90;;;;;;7253619;32;20135;-79
2022/01/06 13:24:40;;;;;;;23.42;7.95;;;5.40;99.90;;;;;;7236282;32;20109;-81
2022/01/06 13:28:43;;;;;;;26.80;9.85;;;5.20;99.90;;;;;;7246052;32;20179;-81
2022/01/06 13:32:55;;;;;;;20.70;8.15;;;5.20;99.90;;;;;;7229751;32;20101;-81
2022/01/06 13:37:16;;;;;;;21.00;7.87;;;5.20;99.90;;;;;;7234699;32;20105;-81
2022/01/06 13:41:25;;;;;;;21.50;8.27;;;5.30;99.90;;;;;;7245486;32;20101;-81
2022/01/06 13:45:33;;;;;;;19.77;9.27;;;5.20;99.90;;;;;;7232611;32;20187;-81
2022/01/06 13:53:55;;;;;;;20.95;8.18;;;5.00;99.90;;;;;;7247831;32;20192;-81
2022/01/06 13:57:57;;;;;;;29.52;9.40;;;5.00;99.90;;;;;;7240916;32;20108;-81
2022/01/06 14:01:59;;;;;;;24.37;8.13;;;5.00;99.90;;;;;;7245932;32;20154;-80
2022/01/06 14:06:07;;;;;;;25.48;8.73;;;5.10;99.90;;;;;;7254607;32;20105;-81
2022/01/06 14:10:09;;;;;;;19.10;8.60;;;5.10;99.90;;;;;;7233200;32;20155;-81
2022/01/06 14:14:12;;;;;;;23.10;8.32;;;5.20;99.90;;;;;;7245201;32;20591;-80
2022/01/06 14:18:15;;;;;;;19.33;8.43;;;5.20;99.90;;;;;;7253437;32;20121;-80
2022/01/06 14:22:17;;;;;;;20.00;7.50;;;5.20;99.90;;;;;;7243935;32;20809;-81
2022/01/06 14:26:19;;;;;;;24.75;7.32;;;5.40;99.90;;;;;;7236308;32;20117;-80
2022/01/06 14:30:23;;;;;;;21.58;7.62;;;5.40;99.90;;;;;;7245614;32;20196;-80
2022/01/06 14:34:25;;;;;;;18.62;8.30;;;5.40;99.90;;;;;;7259550;32;20155;-81
2022/01/06 14:38:27;;;;;;;21.12;7.75;;;5.20;99.90;;;;;;7250244;32;20131;-81
2022/01/06 14:42:29;;;;;;;19.62;7.75;;;5.10;99.90;;;;;;7237191;32;20113;-81
2022/01/06 14:46:31;;;;;;;22.00;8.20;;;5.20;99.90;;;;;;7246724;32;20364;-81
2022/01/06 14:50:33;;;;;;;23.23;6.87;;;5.20;99.90;;;;;;7234961;32;20192;-80
2022/01/06 14:54:35;;;;;;;18.23;7.00;;;5.10;99.90;;;;;;7253041;32;20227;-81
2022/01/06 14:58:38;;;;;;;22.85;7.30;;;5.10;99.90;;;;;;7256578;32;20109;-80
2022/01/06 15:02:44;;;;;;;23.23;8.23;;;5.20;99.90;;;;;;7239787;32;20109;-81
2022/01/06 15:06:47;;;;;;;23.15;8.13;;;5.10;99.90;;;;;;7244265;32;20131;-80
2022/01/06 15:10:49;;;;;;;20.92;6.82;;;5.00;99.90;;;;;;7242259;32;20159;-81
2022/01/06 15:14:51;;;;;;;18.25;5.82;;;5.20;99.90;;;;;;7253867;32;20089;-81
2022/01/06 15:18:53;;;;;;;16.23;5.82;;;5.20;99.90;;;;;;7233435;32;20195;-81
2022/01/06 15:22:56;;;;;;;17.67;5.70;;;5.00;99.90;;;;;;7260692;32;20089;-80
2022/01/06 15:26:58;;;;;;;25.62;6.50;;;4.90;99.90;;;;;;7247015;32;20123;-80
2022/01/06 15:31:00;;;;;;;19.80;6.22;;;4.80;99.90;;;;;;7254641;32;20332;-82
2022/01/06 15:35:05;;;;;;;18.40;5.55;;;4.70;99.90;;;;;;7249082;32;20196;-83
2022/01/06 15:39:08;;;;;;;21.12;7.03;;;4.70;99.90;;;;;;7249058;32;20097;-81
2022/01/06 15:43:15;;;;;;;19.40;6.57;;;4.80;99.90;;;;;;7236412;32;20278;-81
2022/01/06 15:47:18;;;;;;;20.35;6.62;;;4.70;99.90;;;;;;7251504;32;20759;-83
2022/01/06 15:51:20;;;;;;;14.87;7.70;;;4.70;99.90;;;;;;7239547;32;20100;-81
2022/01/06 15:55:25;;;;;;;29.48;9.30;;;4.60;99.90;;;;;;7232757;32;20263;-82
2022/01/06 15:59:33;;;;;;;22.55;10.25;;;4.60;99.90;;;;;;7248252;32;20100;-82
2022/01/06 16:07:57;;;;;;;17.55;8.63;;;4.20;99.90;;;;;;7235383;32;20228;-82
2022/01/06 16:11:59;;;;;;;19.37;8.68;;;4.10;99.90;;;;;;7231959;32;20122;-83
2022/01/06 16:16:03;;;;;;;32.58;10.00;;;3.90;99.90;;;;;;7222653;32;20322;-82
2022/01/06 16:20:10;;;;;;;21.70;8.82;;;3.80;99.90;;;;;;7251655;32;20119;-83
2022/01/06 16:24:13;;;;;;;26.87;9.27;;;3.60;99.90;;;;;;7226292;27;20105;-66
2022/01/06 16:28:15;;;;;;;27.30;10.23;;;3.50;99.90;;;;;;7206394;32;20113;-66
2022/01/06 16:32:20;;;;;;;25.23;10.27;;;3.50;99.90;;;;;;7200700;32;20140;-66
2022/01/06 16:36:22;;;;;;;24.42;8.18;;;3.50;99.90;;;;;;7196627;32;20283;-65
2022/01/06 16:40:23;;;;;;;23.92;9.07;;;3.40;99.90;;;;;;7196685;32;20137;-65
2022/01/06 16:44:25;;;;;;;23.73;8.90;;;3.40;99.90;;;;;;7184892;32;20125;-65
2022/01/06 16:48:27;;;;;;;25.05;8.40;;;3.20;99.90;;;;;;7195487;32;20105;-66
2022/01/06 16:52:28;;;;;;;29.70;9.55;;;3.00;99.90;;;;;;7192702;32;20128;-65
2022/01/06 16:56:30;;;;;;;21.27;9.35;;;2.90;99.90;;;;;;7193660;32;20120;-65
2022/01/06 17:00:32;;;;;;;22.42;9.50;;;2.90;99.90;;;;;;7178458;32;20127;-66
2022/01/06 17:04:34;;;;;;;23.85;9.20;;;2.80;99.90;;;;;;7195309;32;20097;-65
2022/01/06 17:08:37;;;;;;;25.25;8.85;;;2.70;99.90;;;;;;7188835;32;20120;-65
2022/01/06 17:12:39;;;;;;;22.27;10.07;;;2.70;99.90;;;;;;7192746;32;20093;-65
2022/01/06 17:16:41;;;;;;;23.70;9.77;;;2.60;99.90;;;;;;7196023;32;20294;-66
2022/01/06 17:20:44;;;;;;;22.70;8.70;;;2.60;99.90;;;;;;7195863;32;20183;-65
2022/01/06 17:24:46;;;;;;;23.33;8.73;;;2.50;99.90;;;;;;7186259;32;20565;-65
2022/01/06 17:28:48;;;;;;;16.83;9.45;;;2.40;99.90;;;;;;7176589;32;20323;-65
2022/01/06 17:32:50;;;;;;;21.20;9.52;;;2.30;99.90;;;;;;7194131;32;20102;-65
2022/01/06 17:36:51;;;;;;;21.90;9.45;;;2.20;99.90;;;;;;7192600;33;20136;-65
2022/01/06 17:40:53;;;;;;;24.60;10.57;;;2.00;99.90;;;;;;7188350;33;20148;-65
2022/01/06 17:44:55;;;;;;;20.05;9.15;;;1.90;99.90;;;;;;7193415;33;20101;-65
2022/01/06 17:48:56;;;;;;;27.60;9.80;;;1.80;99.90;;;;;;7172722;33;20494;-66
2022/01/06 17:52:58;;;;;;;22.73;9.35;;;1.80;99.90;;;;;;7196847;33;20188;-65
2022/01/06 17:57:01;;;;;;;21.55;10.18;;;1.80;99.90;;;;;;7177217;33;20137;-66
2022/01/06 18:01:02;;;;;;;30.80;9.50;;;1.80;99.90;;;;;;7188317;32;20132;-65
2022/01/06 18:05:11;;;;;;;29.50;9.57;;;1.90;99.90;;;;;;7196903;32;20450;-65
2022/01/06 18:13:14;;;;;;;23.23;11.27;;;1.80;99.90;;;;;;7197510;32;20581;-64
2022/01/06 18:17:17;;;;;;;25.77;10.02;;;1.80;99.90;;;;;;7196926;32;20237;-64
2022/01/06 18:21:19;;;;;;;24.00;8.75;;;1.70;99.90;;;;;;7194946;32;20137;-64
2022/01/06 18:25:22;;;;;;;22.05;8.82;;;1.60;99.90;;;;;;7196197;32;20391;-63
2022/01/06 18:29:24;;;;;;;18.90;8.25;;;1.60;99.90;;;;;;7196674;32;20143;-63
2022/01/06 18:33:26;;;;;;;18.48;8.65;;;1.70;99.90;;;;;;7194316;32;20117;-65
2022/01/06 18:37:28;;;;;;;27.67;9.55;;;1.60;99.90;;;;;;7197201;32;20122;-65
2022/01/06 18:41:30;;;;;;;19.83;8.82;;;1.60;99.90;;;;;;7198539;32;20540;-63
2022/01/06 18:45:31;;;;;;;21.73;8.88;;;1.60;99.90;;;;;;7194691;32;20533;-65
2022/01/06 18:49:33;;;;;;;25.12;11.00;;;1.50;99.90;;;;;;7195849;32;20141;-66
2022/01/06 18:53:36;;;;;;;18.15;8.57;;;1.40;99.90;;;;;;7188315;32;20113;-65
2022/01/06 18:57:38;;;;;;;25.98;9.07;;;1.60;99.90;;;;;;7198776;32;20461;-65
2022/01/06 19:01:40;;;;;;;18.62;8.73;;;1.70;99.90;;;;;;7192845;32;20487;-65
2022/01/06 19:05:42;;;;;;;25.35;7.78;;;1.60;99.90;;;;;;7193833;32;20655;-65
2022/01/06 19:09:44;;;;;;;24.63;8.43;;;1.80;99.90;;;;;;7182547;32;20128;-66
2022/01/06 19:13:58;;;;;;;22.80;8.60;;;1.80;99.90;;;;;;7200433;32;20901;-65
2022/01/06 19:18:04;;;;;;;24.60;9.23;;;1.80;99.90;;;;;;7199100;32;20236;-65
2022/01/06 19:22:06;;;;;;;23.77;8.23;;;1.80;99.90;;;;;;7200251;32;20136;-65
2022/01/06 19:26:08;;;;;;;27.65;8.32;;;1.90;99.90;;;;;;7190820;32;20118;-66
2022/01/06 19:30:12;;;;;;;21.77;7.57;;;2.00;99.90;;;;;;7193777;32;20211;-65
2022/01/06 19:34:33;;;;;;;26.95;8.63;;;2.20;99.90;;;;;;7191185;32;20757;-68
2022/01/06 19:38:36;;;;;;;23.52;8.07;;;2.20;99.90;;;;;;7196916;32;20141;-67
2022/01/06 19:42:46;;;;;;;21.15;7.05;;;2.20;99.90;;;;;;7197305;32;20546;-68
2022/01/06 19:46:47;;;;;;;25.00;8.52;;;2.30;99.90;;;;;;7192219;32;20109;-66
2022/01/06 19:50:50;;;;;;;22.58;7.78;;;2.30;99.90;;;;;;7190175;32;20201;-66
2022/01/06 19:54:52;;;;;;;23.00;7.60;;;2.40;99.90;;;;;;7196590;32;20279;-66
2022/01/06 19:58:54;;;;;;;21.42;6.93;;;2.40;99.90;;;;;;7197092;32;20539;-66
2022/01/06 20:02:56;;;;;;;22.05;6.28;;;2.50;99.90;;;;;;7179264;32;20159;-66
2022/01/06 20:06:58;;;;;;;19.08;6.40;;;2.40;99.90;;;;;;7198886;32;20110;-66
2022/01/06 20:11:01;;;;;;;23.02;6.57;;;2.40;99.90;;;;;;7170306;32;20513;-66
2022/01/06 20:15:05;;;;;;;17.80;5.57;;;2.50;99.90;;;;;;7195701;32;20812;-68
2022/01/06 20:19:06;;;;;;;23.55;6.80;;;2.50;99.90;;;;;;7193902;32;20137;-67
2022/01/06 20:23:08;;;;;;;20.67;7.22;;;2.40;99.90;;;;;;7172189;32;20122;-65
2022/01/06 20:27:11;;;;;;;20.37;6.30;;;2.30;99.90;;;;;;7192238;32;20233;-65
2022/01/06 20:31:12;;;;;;;20.75;6.97;;;2.30;99.90;;;;;;7174455;32;20204;-65
2022/01/06 20:35:32;;;;;;;23.25;7.22;;;2.20;99.90;;;;;;7195279;32;20144;-64
2022/01/06 20:39:35;;;;;;;26.65;7.07;;;2.10;99.90;;;;;;7194079;32;20223;-64
2022/01/06 20:43:38;;;;;;;20.75;6.90;;;2.10;99.90;;;;;;7197164;32;20131;-66
2022/01/06 20:51:46;;;;;;;21.05;5.35;;;2.20;99.90;;;;;;7195731;32;20130;-65
2022/01/06 20:55:50;;;;;;;15.30;5.65;;;2.20;99.90;;;;;;7184102;32;20208;-65
2022/01/06 20:59:54;;;;;;;13.00;5.25;;;2.20;99.90;;;;;;7175721;32;20129;-68
2022/01/06 21:03:55;;;;;;;14.23;5.03;;;2.30;99.90;;;;;;7178222;32;20510;-66
2022/01/06 21:07:57;;;;;;;15.25;4.82;;;2.30;99.90;;;;;;7181526;32;20113;-66
2022/01/06 21:11:59;;;;;;;13.32;4.37;;;2.20;99.90;;;;;;7194382;32;20131;-65
2022/01/06 21:16:01;;;;;;;16.77;5.18;;;2.30;99.90;;;;;;7180951;32;20509;-66
2022/01/06 21:20:04;;;;;;;14.73;4.82;;;2.30;99.90;;;;;;7188338;32;20651;-66
2022/01/06 21:24:06;;;;;;;17.33;5.68;;;2.30;99.90;;;;;;7197877;33;20184;-66
2022/01/06 21:28:07;;;;;;;17.58;4.80;;;2.30;99.90;;;;;;7197570;33;20503;-67
2022/01/06 21:32:09;;;;;;;15.75;5.18;;;2.30;99.90;;;;;;7196746;33;20235;-66